sensor_id;sensor_type;location;lat;lon;timestamp;temperature;humidity
68943;DHT22;60852;52.190;4.422;2023-12-20T00:01:46;9.20;78.74
68943;DHT22;60852;52.190;4.422;2023-12-20T00:04:11;9.23;78.95
68943;DHT22;60852;52.190;4.422;2023-12-20T00:06:37;9.23;78.86
68943;DHT22;60852;52.190;4.422;2023-12-20T00:09:02;9.23;78.20
68943;DHT22;60852;52.190;4.422;2023-12-20T00:11:28;9.27;78.46
68943;DHT22;60852;52.190;4.422;2023-12-20T00:13:53;9.35;78.54
68943;DHT22;60852;52.190;4.422;2023-12-20T00:16:18;9.34;78.50
68943;DHT22;60852;52.190;4.422;2023-12-20T00:18:44;9.28;78.05
68943;DHT22;60852;52.190;4.422;2023-12-20T00:21:09;9.27;77.79
68943;DHT22;60852;52.190;4.422;2023-12-20T00:23:35;9.21;77.71
68943;DHT22;60852;52.190;4.422;2023-12-20T00:26:00;9.23;77.75
68943;DHT22;60852;52.190;4.422;2023-12-20T00:28:26;9.20;77.71
68943;DHT22;60852;52.190;4.422;2023-12-20T00:30:51;9.17;78.10
68943;DHT22;60852;52.190;4.422;2023-12-20T00:33:17;9.20;78.20
68943;DHT22;60852;52.190;4.422;2023-12-20T00:35:42;9.18;77.95
68943;DHT22;60852;52.190;4.422;2023-12-20T00:38:07;9.13;78.13
68943;DHT22;60852;52.190;4.422;2023-12-20T00:40:34;9.15;78.40
68943;DHT22;60852;52.190;4.422;2023-12-20T00:43:00;9.15;78.17
68943;DHT22;60852;52.190;4.422;2023-12-20T00:45:25;9.23;78.44
68943;DHT22;60852;52.190;4.422;2023-12-20T00:47:50;9.23;78.67
68943;DHT22;60852;52.190;4.422;2023-12-20T00:50:16;9.28;78.69
68943;DHT22;60852;52.190;4.422;2023-12-20T00:52:41;9.35;78.49
68943;DHT22;60852;52.190;4.422;2023-12-20T00:55:07;9.30;78.24
68943;DHT22;60852;52.190;4.422;2023-12-20T00:57:33;9.34;78.22
68943;DHT22;60852;52.190;4.422;2023-12-20T00:59:58;9.41;78.03
68943;DHT22;60852;52.190;4.422;2023-12-20T01:02:24;9.35;78.19
68943;DHT22;60852;52.190;4.422;2023-12-20T01:04:49;9.38;78.40
68943;DHT22;60852;52.190;4.422;2023-12-20T01:07:14;9.35;78.64
68943;DHT22;60852;52.190;4.422;2023-12-20T01:09:40;9.38;78.52
68943;DHT22;60852;52.190;4.422;2023-12-20T01:12:05;9.36;78.31
68943;DHT22;60852;52.190;4.422;2023-12-20T01:14:31;9.35;78.11
68943;DHT22;60852;52.190;4.422;2023-12-20T01:16:56;9.39;77.95
68943;DHT22;60852;52.190;4.422;2023-12-20T01:19:22;9.34;77.69
68943;DHT22;60852;52.190;4.422;2023-12-20T01:21:49;9.32;77.65
68943;DHT22;60852;52.190;4.422;2023-12-20T01:24:14;9.34;77.65
68943;DHT22;60852;52.190;4.422;2023-12-20T01:26:40;9.44;77.92
68943;DHT22;60852;52.190;4.422;2023-12-20T01:29:05;9.41;77.91
68943;DHT22;60852;52.190;4.422;2023-12-20T01:31:30;9.45;77.96
68943;DHT22;60852;52.190;4.422;2023-12-20T01:33:56;9.42;77.95
68943;DHT22;60852;52.190;4.422;2023-12-20T01:36:21;9.41;78.36
68943;DHT22;60852;52.190;4.422;2023-12-20T01:38:47;9.36;78.50
68943;DHT22;60852;52.190;4.422;2023-12-20T01:41:12;9.31;77.96
68943;DHT22;60852;52.190;4.422;2023-12-20T01:43:37;9.34;77.89
68943;DHT22;60852;52.190;4.422;2023-12-20T01:46:04;9.30;78.33
68943;DHT22;60852;52.190;4.422;2023-12-20T01:48:30;9.35;78.51
68943;DHT22;60852;52.190;4.422;2023-12-20T01:50:59;9.38;78.22
68943;DHT22;60852;52.190;4.422;2023-12-20T01:53:27;9.35;77.98
68943;DHT22;60852;52.190;4.422;2023-12-20T01:55:55;9.30;78.09
68943;DHT22;60852;52.190;4.422;2023-12-20T01:58:22;9.17;78.30
68943;DHT22;60852;52.190;4.422;2023-12-20T02:00:49;9.23;78.44
68943;DHT22;60852;52.190;4.422;2023-12-20T02:03:15;9.27;78.58
68943;DHT22;60852;52.190;4.422;2023-12-20T02:05:42;9.24;78.59
68943;DHT22;60852;52.190;4.422;2023-12-20T02:08:07;9.30;78.08
68943;DHT22;60852;52.190;4.422;2023-12-20T02:10:34;9.24;77.30
68943;DHT22;60852;52.190;4.422;2023-12-20T02:12:59;9.24;77.38
68943;DHT22;60852;52.190;4.422;2023-12-20T02:15:25;9.23;77.11
68943;DHT22;60852;52.190;4.422;2023-12-20T02:17:50;9.20;76.87
68943;DHT22;60852;52.190;4.422;2023-12-20T02:20:16;9.14;76.73
68943;DHT22;60852;52.190;4.422;2023-12-20T02:22:41;9.17;76.80
68943;DHT22;60852;52.190;4.422;2023-12-20T02:25:07;9.15;76.95
68943;DHT22;60852;52.190;4.422;2023-12-20T02:27:33;9.21;77.02
68943;DHT22;60852;52.190;4.422;2023-12-20T02:29:59;9.21;77.42
68943;DHT22;60852;52.190;4.422;2023-12-20T02:32:25;9.25;77.63
68943;DHT22;60852;52.190;4.422;2023-12-20T02:34:54;9.31;78.07
68943;DHT22;60852;52.190;4.422;2023-12-20T02:37:20;9.30;77.63
68943;DHT22;60852;52.190;4.422;2023-12-20T02:39:45;9.23;77.28
68943;DHT22;60852;52.190;4.422;2023-12-20T02:42:11;9.23;77.20
68943;DHT22;60852;52.190;4.422;2023-12-20T02:44:36;9.23;77.45
68943;DHT22;60852;52.190;4.422;2023-12-20T02:47:02;9.24;77.57
68943;DHT22;60852;52.190;4.422;2023-12-20T02:49:28;9.18;77.53
68943;DHT22;60852;52.190;4.422;2023-12-20T02:51:53;9.21;77.74
68943;DHT22;60852;52.190;4.422;2023-12-20T02:54:19;9.21;77.69
68943;DHT22;60852;52.190;4.422;2023-12-20T02:56:44;9.23;78.01
68943;DHT22;60852;52.190;4.422;2023-12-20T02:59:10;9.24;78.18
68943;DHT22;60852;52.190;4.422;2023-12-20T03:01:41;9.24;77.86
68943;DHT22;60852;52.190;4.422;2023-12-20T03:04:07;9.25;77.33
68943;DHT22;60852;52.190;4.422;2023-12-20T03:06:32;9.17;76.86
68943;DHT22;60852;52.190;4.422;2023-12-20T03:08:58;9.20;77.15
68943;DHT22;60852;52.190;4.422;2023-12-20T03:11:26;9.21;76.92
68943;DHT22;60852;52.190;4.422;2023-12-20T03:13:52;9.17;77.05
68943;DHT22;60852;52.190;4.422;2023-12-20T03:16:18;9.13;77.05
68943;DHT22;60852;52.190;4.422;2023-12-20T03:18:44;9.14;77.40
68943;DHT22;60852;52.190;4.422;2023-12-20T03:21:09;9.15;77.73
68943;DHT22;60852;52.190;4.422;2023-12-20T03:23:34;9.13;77.70
68943;DHT22;60852;52.190;4.422;2023-12-20T03:26:00;9.13;77.28
68943;DHT22;60852;52.190;4.422;2023-12-20T03:28:27;9.15;77.18
68943;DHT22;60852;52.190;4.422;2023-12-20T03:30:52;9.14;77.04
68943;DHT22;60852;52.190;4.422;2023-12-20T03:33:17;9.14;77.23
68943;DHT22;60852;52.190;4.422;2023-12-20T03:35:43;9.18;77.47
68943;DHT22;60852;52.190;4.422;2023-12-20T03:38:08;9.08;77.85
68943;DHT22;60852;52.190;4.422;2023-12-20T03:40:34;8.99;78.33
68943;DHT22;60852;52.190;4.422;2023-12-20T03:43:00;8.91;78.54
68943;DHT22;60852;52.190;4.422;2023-12-20T03:45:25;8.97;78.89
68943;DHT22;60852;52.190;4.422;2023-12-20T03:47:51;8.99;78.61
68943;DHT22;60852;52.190;4.422;2023-12-20T03:50:22;8.96;78.55
68943;DHT22;60852;52.190;4.422;2023-12-20T03:52:47;9.00;78.90
68943;DHT22;60852;52.190;4.422;2023-12-20T03:55:13;8.99;78.58
68943;DHT22;60852;52.190;4.422;2023-12-20T03:57:39;9.01;78.50
68943;DHT22;60852;52.190;4.422;2023-12-20T04:00:06;9.01;78.13
68943;DHT22;60852;52.190;4.422;2023-12-20T04:02:38;8.97;78.20
68943;DHT22;60852;52.190;4.422;2023-12-20T04:05:06;8.99;77.98
68943;DHT22;60852;52.190;4.422;2023-12-20T04:07:32;8.97;77.97
68943;DHT22;60852;52.190;4.422;2023-12-20T04:09:57;9.05;78.12
68943;DHT22;60852;52.190;4.422;2023-12-20T04:12:23;9.08;78.20
68943;DHT22;60852;52.190;4.422;2023-12-20T04:14:48;9.04;78.38
68943;DHT22;60852;52.190;4.422;2023-12-20T04:17:15;8.96;78.06
68943;DHT22;60852;52.190;4.422;2023-12-20T04:19:42;9.03;78.48
68943;DHT22;60852;52.190;4.422;2023-12-20T04:22:08;9.00;78.73
68943;DHT22;60852;52.190;4.422;2023-12-20T04:24:33;8.97;78.22
68943;DHT22;60852;52.190;4.422;2023-12-20T04:26:59;8.94;78.10
68943;DHT22;60852;52.190;4.422;2023-12-20T04:29:24;9.00;78.50
68943;DHT22;60852;52.190;4.422;2023-12-20T04:31:50;9.01;78.11
68943;DHT22;60852;52.190;4.422;2023-12-20T04:34:17;9.05;77.87
68943;DHT22;60852;52.190;4.422;2023-12-20T04:36:43;9.00;78.02
68943;DHT22;60852;52.190;4.422;2023-12-20T04:39:08;9.07;78.10
68943;DHT22;60852;52.190;4.422;2023-12-20T04:41:33;9.15;78.34
68943;DHT22;60852;52.190;4.422;2023-12-20T04:43:59;9.20;78.24
68943;DHT22;60852;52.190;4.422;2023-12-20T04:46:26;9.23;78.30
68943;DHT22;60852;52.190;4.422;2023-12-20T04:48:51;9.15;78.16
68943;DHT22;60852;52.190;4.422;2023-12-20T04:51:17;9.14;78.18
68943;DHT22;60852;52.190;4.422;2023-12-20T04:53:42;9.14;78.23
68943;DHT22;60852;52.190;4.422;2023-12-20T04:56:07;9.15;78.19
68943;DHT22;60852;52.190;4.422;2023-12-20T04:58:33;9.15;78.36
68943;DHT22;60852;52.190;4.422;2023-12-20T05:00:58;9.15;78.51
68943;DHT22;60852;52.190;4.422;2023-12-20T05:03:24;9.11;78.67
68943;DHT22;60852;52.190;4.422;2023-12-20T05:05:49;9.04;79.03
68943;DHT22;60852;52.190;4.422;2023-12-20T05:08:15;9.05;78.89
68943;DHT22;60852;52.190;4.422;2023-12-20T05:10:40;9.07;78.66
68943;DHT22;60852;52.190;4.422;2023-12-20T05:13:06;9.08;78.79
68943;DHT22;60852;52.190;4.422;2023-12-20T05:15:31;9.17;78.82
68943;DHT22;60852;52.190;4.422;2023-12-20T05:17:57;9.25;78.68
68943;DHT22;60852;52.190;4.422;2023-12-20T05:20:23;9.17;78.31
68943;DHT22;60852;52.190;4.422;2023-12-20T05:22:49;9.28;78.41
68943;DHT22;60852;52.190;4.422;2023-12-20T05:25:14;9.35;78.42
68943;DHT22;60852;52.190;4.422;2023-12-20T05:27:39;9.39;78.12
68943;DHT22;60852;52.190;4.422;2023-12-20T05:30:06;9.35;78.17
68943;DHT22;60852;52.190;4.422;2023-12-20T05:32:31;9.36;78.38
68943;DHT22;60852;52.190;4.422;2023-12-20T05:34:57;9.36;78.24
68943;DHT22;60852;52.190;4.422;2023-12-20T05:37:22;9.41;78.16
68943;DHT22;60852;52.190;4.422;2023-12-20T05:39:48;9.41;78.18
68943;DHT22;60852;52.190;4.422;2023-12-20T05:42:13;9.39;78.12
68943;DHT22;60852;52.190;4.422;2023-12-20T05:44:38;9.44;78.16
68943;DHT22;60852;52.190;4.422;2023-12-20T05:47:04;9.46;78.01
68943;DHT22;60852;52.190;4.422;2023-12-20T05:49:29;9.53;78.01
68943;DHT22;60852;52.190;4.422;2023-12-20T05:51:55;9.61;77.77
68943;DHT22;60852;52.190;4.422;2023-12-20T05:54:20;9.55;77.81
68943;DHT22;60852;52.190;4.422;2023-12-20T05:56:46;9.53;77.50
68943;DHT22;60852;52.190;4.422;2023-12-20T05:59:12;9.49;77.94
68943;DHT22;60852;52.190;4.422;2023-12-20T06:01:37;9.45;77.89
68943;DHT22;60852;52.190;4.422;2023-12-20T06:04:03;9.44;78.26
68943;DHT22;60852;52.190;4.422;2023-12-20T06:06:29;9.48;78.22
68943;DHT22;60852;52.190;4.422;2023-12-20T06:08:55;9.39;78.51
68943;DHT22;60852;52.190;4.422;2023-12-20T06:11:21;9.41;78.43
68943;DHT22;60852;52.190;4.422;2023-12-20T06:13:46;9.36;78.52
68943;DHT22;60852;52.190;4.422;2023-12-20T06:16:12;9.44;78.65
68943;DHT22;60852;52.190;4.422;2023-12-20T06:18:38;9.41;78.25
68943;DHT22;60852;52.190;4.422;2023-12-20T06:21:03;9.41;78.45
68943;DHT22;60852;52.190;4.422;2023-12-20T06:23:29;9.36;78.25
68943;DHT22;60852;52.190;4.422;2023-12-20T06:25:55;9.28;78.70
68943;DHT22;60852;52.190;4.422;2023-12-20T06:28:20;9.20;79.05
68943;DHT22;60852;52.190;4.422;2023-12-20T06:30:45;9.20;78.88
68943;DHT22;60852;52.190;4.422;2023-12-20T06:33:14;9.20;79.04
68943;DHT22;60852;52.190;4.422;2023-12-20T06:35:39;9.17;79.17
68943;DHT22;60852;52.190;4.422;2023-12-20T06:38:05;9.13;79.16
68943;DHT22;60852;52.190;4.422;2023-12-20T06:40:30;9.18;79.64
68943;DHT22;60852;52.190;4.422;2023-12-20T06:42:56;9.17;79.73
68943;DHT22;60852;52.190;4.422;2023-12-20T06:45:21;9.07;79.79
68943;DHT22;60852;52.190;4.422;2023-12-20T06:47:47;9.20;79.76
68943;DHT22;60852;52.190;4.422;2023-12-20T06:50:12;9.20;79.99
68943;DHT22;60852;52.190;4.422;2023-12-20T06:52:38;9.25;79.76
68943;DHT22;60852;52.190;4.422;2023-12-20T06:55:03;9.20;79.71
68943;DHT22;60852;52.190;4.422;2023-12-20T06:57:29;9.23;79.52
68943;DHT22;60852;52.190;4.422;2023-12-20T06:59:55;9.30;79.53
68943;DHT22;60852;52.190;4.422;2023-12-20T07:02:21;9.32;79.32
68943;DHT22;60852;52.190;4.422;2023-12-20T07:04:47;9.35;79.19
68943;DHT22;60852;52.190;4.422;2023-12-20T07:07:13;9.30;79.06
68943;DHT22;60852;52.190;4.422;2023-12-20T07:09:38;9.34;79.16
68943;DHT22;60852;52.190;4.422;2023-12-20T07:12:06;9.21;79.41
68943;DHT22;60852;52.190;4.422;2023-12-20T07:14:31;9.18;79.06
68943;DHT22;60852;52.190;4.422;2023-12-20T07:16:57;9.18;78.79
68943;DHT22;60852;52.190;4.422;2023-12-20T07:19:22;9.18;79.05
68943;DHT22;60852;52.190;4.422;2023-12-20T07:21:48;9.28;78.94
68943;DHT22;60852;52.190;4.422;2023-12-20T07:24:13;9.27;79.34
68943;DHT22;60852;52.190;4.422;2023-12-20T07:26:39;9.31;79.38
68943;DHT22;60852;52.190;4.422;2023-12-20T07:29:04;9.36;79.58
68943;DHT22;60852;52.190;4.422;2023-12-20T07:31:30;9.34;79.56
68943;DHT22;60852;52.190;4.422;2023-12-20T07:33:56;9.35;79.95
68943;DHT22;60852;52.190;4.422;2023-12-20T07:36:21;9.36;79.70
68943;DHT22;60852;52.190;4.422;2023-12-20T07:38:47;9.34;79.66
68943;DHT22;60852;52.190;4.422;2023-12-20T07:41:12;9.41;79.72
68943;DHT22;60852;52.190;4.422;2023-12-20T07:43:38;9.51;79.67
68943;DHT22;60852;52.190;4.422;2023-12-20T07:46:08;9.58;79.50
68943;DHT22;60852;52.190;4.422;2023-12-20T07:48:37;9.55;79.55
68943;DHT22;60852;52.190;4.422;2023-12-20T07:51:03;9.55;79.31
68943;DHT22;60852;52.190;4.422;2023-12-20T07:53:29;9.56;79.40
68943;DHT22;60852;52.190;4.422;2023-12-20T07:55:55;9.58;79.40
68943;DHT22;60852;52.190;4.422;2023-12-20T07:58:21;9.65;79.41
68943;DHT22;60852;52.190;4.422;2023-12-20T08:00:47;9.58;79.47
68943;DHT22;60852;52.190;4.422;2023-12-20T08:03:12;9.68;79.55
68943;DHT22;60852;52.190;4.422;2023-12-20T08:05:38;9.69;79.60
68943;DHT22;60852;52.190;4.422;2023-12-20T08:08:06;9.66;79.72
68943;DHT22;60852;52.190;4.422;2023-12-20T08:10:31;9.66;79.71
68943;DHT22;60852;52.190;4.422;2023-12-20T08:12:57;9.72;79.90
68943;DHT22;60852;52.190;4.422;2023-12-20T08:15:22;9.65;79.69
68943;DHT22;60852;52.190;4.422;2023-12-20T08:17:49;9.63;79.95
68943;DHT22;60852;52.190;4.422;2023-12-20T08:20:16;9.78;79.73
68943;DHT22;60852;52.190;4.422;2023-12-20T08:22:42;9.76;79.61
68943;DHT22;60852;52.190;4.422;2023-12-20T08:25:08;9.76;79.45
68943;DHT22;60852;52.190;4.422;2023-12-20T08:27:38;9.72;79.74
68943;DHT22;60852;52.190;4.422;2023-12-20T08:30:03;9.72;79.26
68943;DHT22;60852;52.190;4.422;2023-12-20T08:32:29;9.76;78.93
68943;DHT22;60852;52.190;4.422;2023-12-20T08:34:54;9.81;79.05
68943;DHT22;60852;52.190;4.422;2023-12-20T08:37:20;9.79;78.78
68943;DHT22;60852;52.190;4.422;2023-12-20T08:39:45;9.86;78.69
68943;DHT22;60852;52.190;4.422;2023-12-20T08:42:11;9.82;78.76
68943;DHT22;60852;52.190;4.422;2023-12-20T08:44:36;9.86;78.52
68943;DHT22;60852;52.190;4.422;2023-12-20T08:47:02;9.87;78.69
68943;DHT22;60852;52.190;4.422;2023-12-20T08:49:28;9.90;78.63
68943;DHT22;60852;52.190;4.422;2023-12-20T08:51:53;9.89;78.88
68943;DHT22;60852;52.190;4.422;2023-12-20T08:54:19;9.90;78.91
68943;DHT22;60852;52.190;4.422;2023-12-20T08:56:45;9.93;78.70
68943;DHT22;60852;52.190;4.422;2023-12-20T08:59:11;9.97;78.59
68943;DHT22;60852;52.190;4.422;2023-12-20T09:01:37;9.97;78.71
68943;DHT22;60852;52.190;4.422;2023-12-20T09:04:02;10.00;78.53
68943;DHT22;60852;52.190;4.422;2023-12-20T09:06:28;10.04;78.54
68943;DHT22;60852;52.190;4.422;2023-12-20T09:08:53;10.09;78.48
68943;DHT22;60852;52.190;4.422;2023-12-20T09:11:19;10.04;78.28
68943;DHT22;60852;52.190;4.422;2023-12-20T09:13:44;10.06;78.32
68943;DHT22;60852;52.190;4.422;2023-12-20T09:16:10;10.14;78.60
68943;DHT22;60852;52.190;4.422;2023-12-20T09:18:35;10.07;78.60
68943;DHT22;60852;52.190;4.422;2023-12-20T09:21:01;10.07;78.66
68943;DHT22;60852;52.190;4.422;2023-12-20T09:23:27;10.06;78.71
68943;DHT22;60852;52.190;4.422;2023-12-20T09:25:52;10.04;78.87
68943;DHT22;60852;52.190;4.422;2023-12-20T09:28:18;10.09;79.01
68943;DHT22;60852;52.190;4.422;2023-12-20T09:30:43;10.10;79.01
68943;DHT22;60852;52.190;4.422;2023-12-20T09:33:11;10.04;79.37
68943;DHT22;60852;52.190;4.422;2023-12-20T09:35:36;10.13;78.98
68943;DHT22;60852;52.190;4.422;2023-12-20T09:38:02;10.17;78.97
68943;DHT22;60852;52.190;4.422;2023-12-20T09:40:28;10.17;78.78
68943;DHT22;60852;52.190;4.422;2023-12-20T09:42:58;10.18;78.77
68943;DHT22;60852;52.190;4.422;2023-12-20T09:45:24;10.21;78.86
68943;DHT22;60852;52.190;4.422;2023-12-20T09:47:52;10.17;78.90
68943;DHT22;60852;52.190;4.422;2023-12-20T09:50:20;10.16;78.52
68943;DHT22;60852;52.190;4.422;2023-12-20T09:52:50;10.14;78.44
68943;DHT22;60852;52.190;4.422;2023-12-20T09:55:20;10.14;78.59
68943;DHT22;60852;52.190;4.422;2023-12-20T09:57:49;10.14;78.66
68943;DHT22;60852;52.190;4.422;2023-12-20T10:00:15;10.13;78.71
68943;DHT22;60852;52.190;4.422;2023-12-20T10:03:00;10.17;78.34
68943;DHT22;60852;52.190;4.422;2023-12-20T10:05:28;10.18;78.40
68943;DHT22;60852;52.190;4.422;2023-12-20T10:07:54;10.18;78.56
68943;DHT22;60852;52.190;4.422;2023-12-20T10:10:20;10.12;78.62
68943;DHT22;60852;52.190;4.422;2023-12-20T10:13:20;10.16;78.79
68943;DHT22;60852;52.190;4.422;2023-12-20T10:15:46;10.10;79.19
68943;DHT22;60852;52.190;4.422;2023-12-20T10:18:12;10.18;79.05
68943;DHT22;60852;52.190;4.422;2023-12-20T10:20:40;10.21;78.92
68943;DHT22;60852;52.190;4.422;2023-12-20T10:23:06;10.30;78.75
68943;DHT22;60852;52.190;4.422;2023-12-20T10:25:32;10.30;78.68
68943;DHT22;60852;52.190;4.422;2023-12-20T10:28:14;10.36;78.74
68943;DHT22;60852;52.190;4.422;2023-12-20T10:30:42;10.45;78.52
68943;DHT22;60852;52.190;4.422;2023-12-20T10:33:09;10.58;78.25
68943;DHT22;60852;52.190;4.422;2023-12-20T10:35:35;10.64;77.81
68943;DHT22;60852;52.190;4.422;2023-12-20T10:38:04;10.71;77.87
68943;DHT22;60852;52.190;4.422;2023-12-20T10:40:31;10.79;77.98
68943;DHT22;60852;52.190;4.422;2023-12-20T10:42:58;10.86;77.64
68943;DHT22;60852;52.190;4.422;2023-12-20T10:45:24;10.95;77.45
68943;DHT22;60852;52.190;4.422;2023-12-20T10:47:51;11.01;77.00
68943;DHT22;60852;52.190;4.422;2023-12-20T10:50:18;11.13;76.33
68943;DHT22;60852;52.190;4.422;2023-12-20T10:52:46;11.22;76.02
68943;DHT22;60852;52.190;4.422;2023-12-20T10:55:12;11.18;76.01
68943;DHT22;60852;52.190;4.422;2023-12-20T10:57:38;11.08;76.23
68943;DHT22;60852;52.190;4.422;2023-12-20T11:00:06;11.05;76.78
68943;DHT22;60852;52.190;4.422;2023-12-20T11:02:39;10.98;77.00
68943;DHT22;60852;52.190;4.422;2023-12-20T11:07:51;10.85;76.85
68943;DHT22;60852;52.190;4.422;2023-12-20T11:10:23;10.78;76.77
68943;DHT22;60852;52.190;4.422;2023-12-20T11:13:13;10.68;77.16
68943;DHT22;60852;52.190;4.422;2023-12-20T11:15:42;10.69;77.27
68943;DHT22;60852;52.190;4.422;2023-12-20T11:18:08;10.61;77.60
68943;DHT22;60852;52.190;4.422;2023-12-20T11:20:38;10.62;77.55
68943;DHT22;60852;52.190;4.422;2023-12-20T11:23:05;10.61;77.73
68943;DHT22;60852;52.190;4.422;2023-12-20T11:25:46;10.60;78.02
68943;DHT22;60852;52.190;4.422;2023-12-20T11:28:12;10.65;77.64
68943;DHT22;60852;52.190;4.422;2023-12-20T11:33:08;10.72;77.61
68943;DHT22;60852;52.190;4.422;2023-12-20T11:35:34;10.72;77.80
68943;DHT22;60852;52.190;4.422;2023-12-20T11:38:01;10.72;77.87
68943;DHT22;60852;52.190;4.422;2023-12-20T11:40:27;10.71;77.78
68943;DHT22;60852;52.190;4.422;2023-12-20T11:42:52;10.73;77.82
68943;DHT22;60852;52.190;4.422;2023-12-20T11:45:21;10.76;77.64
68943;DHT22;60852;52.190;4.422;2023-12-20T11:47:48;10.79;77.54
68943;DHT22;60852;52.190;4.422;2023-12-20T11:50:20;10.73;77.13
68943;DHT22;60852;52.190;4.422;2023-12-20T11:52:46;10.75;77.02
68943;DHT22;60852;52.190;4.422;2023-12-20T11:55:12;10.75;77.05
68943;DHT22;60852;52.190;4.422;2023-12-20T11:57:38;10.83;77.11
68943;DHT22;60852;52.190;4.422;2023-12-20T12:00:04;10.85;77.14
68943;DHT22;60852;52.190;4.422;2023-12-20T12:02:32;10.71;77.53
68943;DHT22;60852;52.190;4.422;2023-12-20T12:04:59;10.73;77.74
68943;DHT22;60852;52.190;4.422;2023-12-20T12:07:25;10.73;77.74
68943;DHT22;60852;52.190;4.422;2023-12-20T12:09:50;10.78;77.67
68943;DHT22;60852;52.190;4.422;2023-12-20T12:12:17;10.85;77.43
68943;DHT22;60852;52.190;4.422;2023-12-20T12:14:44;10.88;77.28
68943;DHT22;60852;52.190;4.422;2023-12-20T12:17:14;10.91;77.33
68943;DHT22;60852;52.190;4.422;2023-12-20T12:19:40;11.01;77.25
68943;DHT22;60852;52.190;4.422;2023-12-20T12:22:14;11.05;77.01
68943;DHT22;60852;52.190;4.422;2023-12-20T12:24:41;11.01;77.05
68943;DHT22;60852;52.190;4.422;2023-12-20T12:27:07;10.99;77.10
68943;DHT22;60852;52.190;4.422;2023-12-20T12:29:34;10.98;77.04
68943;DHT22;60852;52.190;4.422;2023-12-20T12:32:00;10.98;77.35
68943;DHT22;60852;52.190;4.422;2023-12-20T12:34:28;10.99;77.25
68943;DHT22;60852;52.190;4.422;2023-12-20T12:36:54;10.95;76.94
68943;DHT22;60852;52.190;4.422;2023-12-20T12:39:19;10.99;76.89
68943;DHT22;60852;52.190;4.422;2023-12-20T12:41:45;11.02;76.99
68943;DHT22;60852;52.190;4.422;2023-12-20T12:44:10;10.95;77.35
68943;DHT22;60852;52.190;4.422;2023-12-20T12:46:36;10.93;77.50
68943;DHT22;60852;52.190;4.422;2023-12-20T12:49:01;10.96;77.36
68943;DHT22;60852;52.190;4.422;2023-12-20T12:51:27;10.98;77.40
68943;DHT22;60852;52.190;4.422;2023-12-20T12:53:53;10.92;77.42
68943;DHT22;60852;52.190;4.422;2023-12-20T12:56:18;10.93;77.51
68943;DHT22;60852;52.190;4.422;2023-12-20T12:58:44;10.96;77.52
68943;DHT22;60852;52.190;4.422;2023-12-20T13:01:10;10.96;77.14
68943;DHT22;60852;52.190;4.422;2023-12-20T13:03:35;10.91;76.84
68943;DHT22;60852;52.190;4.422;2023-12-20T13:06:01;10.96;77.23
68943;DHT22;60852;52.190;4.422;2023-12-20T13:08:28;11.01;77.19
68943;DHT22;60852;52.190;4.422;2023-12-20T13:10:53;10.99;77.19
68943;DHT22;60852;52.190;4.422;2023-12-20T13:13:19;11.01;77.19
68943;DHT22;60852;52.190;4.422;2023-12-20T13:15:44;11.02;77.27
68943;DHT22;60852;52.190;4.422;2023-12-20T13:18:18;11.01;77.59
68943;DHT22;60852;52.190;4.422;2023-12-20T13:20:44;10.99;77.48
68943;DHT22;60852;52.190;4.422;2023-12-20T13:23:09;10.91;77.45
68943;DHT22;60852;52.190;4.422;2023-12-20T13:25:35;10.91;77.70
68943;DHT22;60852;52.190;4.422;2023-12-20T13:28:01;10.96;77.65
68943;DHT22;60852;52.190;4.422;2023-12-20T13:30:27;10.98;77.92
68943;DHT22;60852;52.190;4.422;2023-12-20T13:32:53;10.95;78.04
68943;DHT22;60852;52.190;4.422;2023-12-20T13:35:18;10.83;78.26
68943;DHT22;60852;52.190;4.422;2023-12-20T13:37:44;10.81;78.61
68943;DHT22;60852;52.190;4.422;2023-12-20T13:40:10;10.81;78.77
68943;DHT22;60852;52.190;4.422;2023-12-20T13:42:35;10.82;78.50
68943;DHT22;60852;52.190;4.422;2023-12-20T13:45:01;10.82;78.76
68943;DHT22;60852;52.190;4.422;2023-12-20T13:47:26;10.86;78.82
68943;DHT22;60852;52.190;4.422;2023-12-20T13:49:52;10.88;78.67
68943;DHT22;60852;52.190;4.422;2023-12-20T13:52:17;10.91;78.83
68943;DHT22;60852;52.190;4.422;2023-12-20T13:54:43;10.79;78.93
68943;DHT22;60852;52.190;4.422;2023-12-20T13:57:09;10.67;79.29
68943;DHT22;60852;52.190;4.422;2023-12-20T13:59:35;10.69;79.53
68943;DHT22;60852;52.190;4.422;2023-12-20T14:02:00;10.69;79.36
68943;DHT22;60852;52.190;4.422;2023-12-20T14:04:26;10.71;79.42
68943;DHT22;60852;52.190;4.422;2023-12-20T14:06:51;10.65;79.41
68943;DHT22;60852;52.190;4.422;2023-12-20T14:09:17;10.69;79.40
68943;DHT22;60852;52.190;4.422;2023-12-20T14:11:42;10.72;79.14
68943;DHT22;60852;52.190;4.422;2023-12-20T14:14:08;10.75;78.98
68943;DHT22;60852;52.190;4.422;2023-12-20T14:16:34;10.72;79.20
68943;DHT22;60852;52.190;4.422;2023-12-20T14:19:00;10.71;79.30
68943;DHT22;60852;52.190;4.422;2023-12-20T14:21:25;10.76;79.29
68943;DHT22;60852;52.190;4.422;2023-12-20T14:23:51;10.72;79.44
68943;DHT22;60852;52.190;4.422;2023-12-20T14:26:17;10.81;79.47
68943;DHT22;60852;52.190;4.422;2023-12-20T14:28:43;10.83;79.17
68943;DHT22;60852;52.190;4.422;2023-12-20T14:31:09;10.83;79.18
68943;DHT22;60852;52.190;4.422;2023-12-20T14:33:35;10.76;79.14
68943;DHT22;60852;52.190;4.422;2023-12-20T14:36:03;10.68;79.32
68943;DHT22;60852;52.190;4.422;2023-12-20T14:38:31;10.69;79.44
68943;DHT22;60852;52.190;4.422;2023-12-20T14:40:56;10.68;79.66
68943;DHT22;60852;52.190;4.422;2023-12-20T14:43:22;10.67;79.77
68943;DHT22;60852;52.190;4.422;2023-12-20T14:45:48;10.69;79.67
68943;DHT22;60852;52.190;4.422;2023-12-20T14:48:13;10.75;79.77
68943;DHT22;60852;52.190;4.422;2023-12-20T14:50:39;10.72;79.61
68943;DHT22;60852;52.190;4.422;2023-12-20T14:53:06;10.65;79.53
68943;DHT22;60852;52.190;4.422;2023-12-20T14:55:32;10.67;79.55
68943;DHT22;60852;52.190;4.422;2023-12-20T14:57:59;10.69;79.67
68943;DHT22;60852;52.190;4.422;2023-12-20T15:00:25;10.67;79.89
68943;DHT22;60852;52.190;4.422;2023-12-20T15:02:50;10.72;79.99
68943;DHT22;60852;52.190;4.422;2023-12-20T15:05:16;10.75;79.78
68943;DHT22;60852;52.190;4.422;2023-12-20T15:07:43;10.72;79.78
68943;DHT22;60852;52.190;4.422;2023-12-20T15:10:09;10.67;80.01
68943;DHT22;60852;52.190;4.422;2023-12-20T15:12:34;10.58;80.26
68943;DHT22;60852;52.190;4.422;2023-12-20T15:15:00;10.62;80.39
68943;DHT22;60852;52.190;4.422;2023-12-20T15:17:25;10.62;80.48
68943;DHT22;60852;52.190;4.422;2023-12-20T15:19:52;10.64;80.27
68943;DHT22;60852;52.190;4.422;2023-12-20T15:22:17;10.61;80.62
68943;DHT22;60852;52.190;4.422;2023-12-20T15:24:43;10.57;80.84
68943;DHT22;60852;52.190;4.422;2023-12-20T15:27:11;10.60;80.67
68943;DHT22;60852;52.190;4.422;2023-12-20T15:29:36;10.60;80.83
68943;DHT22;60852;52.190;4.422;2023-12-20T15:32:02;10.60;80.68
68943;DHT22;60852;52.190;4.422;2023-12-20T15:34:29;10.61;80.69
68943;DHT22;60852;52.190;4.422;2023-12-20T15:36:54;10.60;80.60
68943;DHT22;60852;52.190;4.422;2023-12-20T15:39:20;10.60;80.80